createdAt,value
2022-08-20T00:02:11.588Z,13.18
2022-08-20T00:04:39.702Z,12.43
2022-08-20T00:07:07.339Z,12.88
2022-08-20T00:09:36.596Z,13.15
2022-08-20T00:12:04.792Z,13.07
2022-08-20T00:14:34.025Z,11.80
2022-08-20T00:17:01.811Z,13.30
2022-08-20T00:19:30.651Z,12.73
2022-08-20T00:21:58.599Z,12.55
2022-08-20T00:24:26.110Z,13.23
2022-08-20T00:26:53.575Z,12.57
2022-08-20T00:29:22.358Z,12.82
2022-08-20T00:31:50.828Z,12.43
2022-08-20T00:34:18.470Z,13.93
2022-08-20T00:36:47.231Z,13.65
2022-08-20T00:39:15.140Z,13.30
2022-08-20T00:41:42.572Z,13.88
2022-08-20T00:44:12.310Z,13.95
2022-08-20T00:46:40.276Z,14.90
2022-08-20T00:49:09.205Z,15.40
2022-08-20T00:51:38.137Z,15.38
2022-08-20T00:54:10.819Z,15.75
2022-08-20T00:56:38.974Z,17.05
2022-08-20T00:59:11.666Z,16.73
2022-08-20T01:01:55.915Z,18.30
2022-08-20T01:04:24.877Z,18.17
2022-08-20T01:06:52.315Z,17.42
2022-08-20T01:09:33.470Z,18.98
2022-08-20T01:12:08.879Z,18.60
2022-08-20T01:14:43.526Z,17.20
2022-08-20T01:17:13.420Z,17.05
2022-08-20T01:19:44.065Z,16.23
2022-08-20T01:22:25.521Z,16.00
2022-08-20T01:25:05.014Z,17.17
2022-08-20T01:27:42.704Z,16.95
2022-08-20T01:30:11.491Z,17.13
2022-08-20T01:32:38.956Z,17.65
2022-08-20T01:35:06.697Z,16.40
2022-08-20T01:37:34.068Z,17.45
2022-08-20T01:40:02.453Z,18.73
2022-08-20T01:42:33.257Z,18.05
2022-08-20T01:45:03.772Z,19.00
2022-08-20T01:47:36.386Z,21.25
2022-08-20T01:50:08.501Z,20.00
2022-08-20T01:52:41.285Z,19.77
2022-08-20T01:55:09.416Z,21.50
2022-08-20T01:57:37.483Z,21.25
2022-08-20T02:00:08.856Z,19.33
2022-08-20T02:02:42.086Z,20.30
2022-08-20T02:05:10.651Z,20.48
2022-08-20T02:07:38.287Z,20.42
2022-08-20T02:10:06.718Z,19.38
2022-08-20T02:12:35.175Z,19.42
2022-08-20T02:15:02.622Z,19.30
2022-08-20T02:17:31.439Z,20.10
2022-08-20T02:20:00.031Z,20.58
2022-08-20T02:22:30.341Z,17.13
2022-08-20T02:24:57.783Z,16.45
2022-08-20T02:27:25.251Z,15.35
2022-08-20T02:29:53.146Z,13.85
2022-08-20T02:32:32.803Z,13.38
2022-08-20T02:35:03.814Z,10.85
2022-08-20T02:37:31.400Z,11.57
2022-08-20T02:39:59.080Z,10.68
2022-08-20T02:42:27.338Z,9.80
2022-08-20T02:44:55.005Z,8.70
2022-08-20T02:47:22.483Z,8.07
2022-08-20T02:49:49.883Z,8.02
2022-08-20T02:52:18.638Z,9.63
2022-08-20T02:54:46.083Z,7.88
2022-08-20T02:57:14.760Z,8.25
2022-08-20T02:59:43.082Z,8.70
2022-08-20T03:02:12.052Z,8.55
2022-08-20T03:04:39.468Z,9.82
2022-08-20T03:07:07.510Z,9.00
2022-08-20T03:09:36.427Z,9.68
2022-08-20T03:12:03.899Z,10.20
2022-08-20T03:14:31.568Z,9.82
2022-08-20T03:16:59.414Z,11.25
2022-08-20T03:19:27.007Z,10.07
2022-08-20T03:21:54.613Z,10.90
2022-08-20T03:24:22.082Z,10.13
2022-08-20T03:26:50.827Z,12.65
2022-08-20T03:29:18.247Z,11.70
2022-08-20T03:31:45.664Z,11.73
2022-08-20T03:34:13.100Z,12.65
2022-08-20T03:36:40.546Z,12.38
2022-08-20T03:39:11.517Z,13.57
2022-08-20T03:41:39.211Z,13.75
2022-08-20T03:44:07.958Z,12.82
2022-08-20T03:46:35.481Z,14.90
2022-08-20T03:49:03.163Z,15.77
2022-08-20T03:51:30.925Z,16.42
2022-08-20T03:53:58.904Z,17.15
2022-08-20T03:56:26.506Z,16.50
2022-08-20T03:58:53.980Z,17.92
2022-08-20T04:01:45.030Z,17.63
2022-08-20T04:04:12.236Z,18.65
2022-08-20T04:06:40.459Z,17.88
2022-08-20T04:09:09.558Z,18.88
2022-08-20T04:11:37.854Z,18.40
2022-08-20T04:14:05.342Z,19.50
2022-08-20T04:16:34.114Z,19.83
2022-08-20T04:19:03.579Z,20.67
2022-08-20T04:21:32.483Z,20.83
2022-08-20T04:24:01.126Z,19.48
2022-08-20T04:26:28.794Z,20.83
2022-08-20T04:28:56.280Z,19.25
2022-08-20T04:31:25.703Z,19.70
2022-08-20T04:33:54.792Z,18.90
2022-08-20T04:36:22.204Z,18.70
2022-08-20T04:38:50.258Z,18.67
2022-08-20T04:41:21.033Z,18.33
2022-08-20T04:43:50.816Z,19.33
2022-08-20T04:46:18.290Z,18.83
2022-08-20T04:48:49.044Z,19.75
2022-08-20T04:51:19.429Z,19.80
2022-08-20T04:53:51.976Z,19.10
2022-08-20T04:56:23.507Z,18.73
2022-08-20T04:58:51.417Z,18.17
2022-08-20T05:01:19.028Z,16.60
2022-08-20T05:03:47.547Z,17.38
2022-08-20T05:06:15.995Z,16.50
2022-08-20T05:08:45.050Z,15.80
2022-08-20T05:11:35.614Z,16.30
2022-08-20T05:14:01.833Z,16.55
2022-08-20T05:16:29.554Z,16.17
2022-08-20T05:18:57.108Z,15.32
2022-08-20T05:21:24.542Z,15.52
2022-08-20T05:23:53.348Z,14.50
2022-08-20T05:26:20.778Z,14.50
2022-08-20T05:28:58.687Z,14.32
2022-08-20T05:31:30.870Z,14.25
2022-08-20T05:34:00.558Z,13.88
2022-08-20T05:36:28.009Z,13.30
2022-08-20T05:38:56.790Z,13.73
2022-08-20T05:41:28.599Z,13.02
2022-08-20T05:43:57.434Z,13.80
2022-08-20T05:46:24.876Z,12.80
2022-08-20T05:48:52.320Z,12.00
2022-08-20T05:51:19.788Z,11.85
2022-08-20T05:53:47.198Z,12.50
2022-08-20T05:56:16.187Z,13.52
2022-08-20T05:58:43.639Z,12.65
2022-08-20T06:01:11.128Z,12.15
2022-08-20T06:03:56.118Z,12.93
2022-08-20T06:06:45.187Z,13.05
2022-08-20T06:09:11.671Z,13.20
2022-08-20T06:11:40.449Z,11.77
2022-08-20T06:14:07.867Z,11.77
2022-08-20T06:16:37.327Z,12.02
2022-08-20T06:19:05.511Z,12.88
2022-08-20T06:21:33.087Z,12.55
2022-08-20T06:24:02.282Z,13.05
2022-08-20T06:26:31.107Z,12.65
2022-08-20T06:29:00.224Z,12.00
2022-08-20T06:31:27.888Z,11.80
2022-08-20T06:33:55.419Z,13.20
2022-08-20T06:36:22.865Z,13.32
2022-08-20T06:38:50.299Z,11.02
2022-08-20T06:41:18.191Z,12.45
2022-08-20T06:43:46.484Z,12.48
2022-08-20T06:46:15.537Z,12.05
2022-08-20T06:48:43.038Z,11.43
2022-08-20T06:51:10.471Z,10.63
2022-08-20T06:53:38.877Z,11.30
2022-08-20T06:56:06.631Z,11.30
2022-08-20T06:58:37.350Z,13.45
2022-08-20T07:01:10.142Z,12.70
2022-08-20T07:03:39.333Z,12.20
2022-08-20T07:06:11.140Z,12.10
2022-08-20T07:08:38.567Z,12.38
2022-08-20T07:11:07.554Z,13.48
2022-08-20T07:13:36.602Z,12.55
2022-08-20T07:16:04.246Z,13.35
2022-08-20T07:18:31.857Z,12.82
2022-08-20T07:21:01.119Z,13.50
2022-08-20T07:23:28.771Z,12.52
2022-08-20T07:25:56.254Z,14.02
2022-08-20T07:28:25.754Z,13.57
2022-08-20T07:31:13.244Z,14.30
2022-08-20T07:33:41.795Z,13.70
2022-08-20T07:36:10.967Z,15.18
2022-08-20T07:38:38.409Z,14.00
2022-08-20T07:41:07.006Z,14.35
2022-08-20T07:43:34.827Z,15.02
2022-08-20T07:46:09.010Z,14.73
2022-08-20T07:48:38.941Z,13.82
2022-08-20T07:51:06.970Z,14.57
2022-08-20T07:53:36.834Z,15.13
2022-08-20T07:56:05.834Z,14.15
2022-08-20T07:58:35.661Z,15.50
2022-08-20T08:01:03.189Z,15.23
2022-08-20T08:03:40.662Z,14.07
2022-08-20T08:06:28.424Z,14.95
2022-08-20T08:09:00.029Z,14.85
2022-08-20T08:11:27.510Z,14.75
2022-08-20T08:13:54.975Z,15.00
2022-08-20T08:16:22.438Z,15.57
2022-08-20T08:18:56.406Z,15.07
2022-08-20T08:21:23.874Z,15.40
2022-08-20T08:23:53.260Z,15.20
2022-08-20T08:26:22.396Z,16.95
2022-08-20T08:28:49.856Z,16.85
2022-08-20T08:31:17.279Z,14.80
2022-08-20T08:33:45.322Z,14.48
2022-08-20T08:36:13.558Z,15.15
2022-08-20T08:38:44.083Z,13.90
2022-08-20T08:41:14.882Z,14.27
2022-08-20T08:43:46.586Z,16.17
2022-08-20T08:46:17.909Z,15.63
2022-08-20T08:48:47.663Z,15.38
2022-08-20T08:51:17.596Z,16.65
2022-08-20T08:53:47.136Z,16.55
2022-08-20T08:56:15.686Z,15.60
2022-08-20T08:58:44.906Z,15.05
2022-08-20T09:01:52.901Z,16.55
2022-08-20T09:04:02.753Z,14.60
2022-08-20T09:06:30.194Z,14.93
2022-08-20T09:09:00.993Z,15.13
2022-08-20T09:11:28.614Z,15.52
2022-08-20T09:13:58.497Z,16.45
2022-08-20T09:16:29.154Z,16.25
2022-08-20T09:19:14.830Z,16.33
2022-08-20T09:21:42.283Z,15.55
2022-08-20T09:24:09.726Z,17.60
2022-08-20T09:26:39.131Z,16.23
2022-08-20T09:29:08.179Z,16.67
2022-08-20T09:31:36.302Z,16.60
2022-08-20T09:34:05.731Z,14.50
2022-08-20T09:36:33.316Z,15.57
2022-08-20T09:39:02.924Z,15.23
2022-08-20T09:41:30.951Z,15.38
2022-08-20T09:44:02.166Z,16.10
2022-08-20T09:46:30.934Z,17.05
2022-08-20T09:48:58.379Z,18.77
2022-08-20T09:51:25.861Z,18.80
2022-08-20T09:53:53.392Z,19.42
2022-08-20T09:56:20.875Z,17.75
2022-08-20T09:58:50.287Z,19.63
2022-08-20T10:01:18.651Z,17.50
2022-08-20T10:03:48.903Z,17.85
2022-08-20T10:06:17.832Z,19.02
2022-08-20T10:08:45.636Z,19.02
2022-08-20T10:11:13.495Z,18.20
2022-08-20T10:13:40.909Z,17.42
2022-08-20T10:16:08.431Z,16.27
2022-08-20T10:18:36.127Z,15.18
2022-08-20T10:21:09.654Z,17.52
2022-08-20T10:23:37.054Z,16.67
2022-08-20T10:26:06.673Z,16.02
2022-08-20T10:28:34.984Z,14.45
2022-08-20T10:31:04.532Z,16.13
2022-08-20T10:33:32.200Z,16.25
2022-08-20T10:36:00.321Z,14.50
2022-08-20T10:38:29.163Z,15.65
2022-08-20T10:40:56.637Z,14.98
2022-08-20T10:43:24.099Z,15.13
2022-08-20T10:45:51.826Z,14.38
2022-08-20T10:48:21.519Z,13.75
2022-08-20T10:50:49.323Z,13.70
2022-08-20T10:53:16.759Z,12.93
2022-08-20T10:55:45.563Z,12.48
2022-08-20T10:58:13.255Z,12.05
2022-08-20T11:00:41.029Z,10.75
2022-08-20T11:03:08.456Z,12.00
2022-08-20T11:05:36.088Z,10.82
2022-08-20T11:08:04.027Z,9.80
2022-08-20T11:10:33.239Z,9.70
2022-08-20T11:13:03.047Z,7.63
2022-08-20T11:15:30.979Z,8.10
2022-08-20T11:17:58.582Z,7.95
2022-08-20T11:20:26.964Z,8.40
2022-08-20T11:22:54.619Z,7.97
2022-08-20T11:25:22.315Z,10.02
2022-08-20T11:27:50.440Z,9.15
2022-08-20T11:30:22.578Z,8.38
2022-08-20T11:32:50.074Z,8.02
2022-08-20T11:35:41.806Z,8.27
2022-08-20T11:38:06.457Z,9.32
2022-08-20T11:40:33.938Z,7.00
2022-08-20T11:43:17.856Z,7.28
2022-08-20T11:45:47.878Z,7.07
2022-08-20T11:48:15.345Z,7.20
2022-08-20T11:50:42.807Z,6.57
2022-08-20T11:53:10.267Z,6.30
2022-08-20T11:55:38.687Z,6.35
2022-08-20T11:58:06.860Z,5.90
2022-08-20T12:00:34.590Z,6.78
2022-08-20T12:03:04.944Z,5.78
2022-08-20T12:05:32.700Z,5.93
2022-08-20T12:08:01.486Z,6.00
2022-08-20T12:10:29.087Z,6.10
2022-08-20T12:12:56.809Z,5.97
2022-08-20T12:15:25.215Z,5.93
2022-08-20T12:17:52.628Z,5.80
2022-08-20T12:20:21.567Z,5.03
2022-08-20T12:22:49.043Z,5.60
2022-08-20T12:25:16.456Z,4.60
2022-08-20T12:27:44.194Z,5.20
2022-08-20T12:30:13.141Z,5.65
2022-08-20T12:32:40.583Z,6.53
2022-08-20T12:35:09.528Z,5.90
2022-08-20T12:37:38.642Z,5.57
2022-08-20T12:40:07.681Z,5.50
2022-08-20T12:42:35.556Z,4.78
2022-08-20T12:45:03.007Z,4.90
2022-08-20T12:47:31.417Z,4.95
2022-08-20T12:50:00.765Z,5.13
2022-08-20T12:52:29.242Z,4.50
2022-08-20T12:54:58.497Z,4.88
2022-08-20T12:57:28.222Z,4.47
2022-08-20T12:59:55.951Z,5.47
2022-08-20T13:02:23.591Z,5.57
2022-08-20T13:04:51.499Z,5.28
2022-08-20T13:07:18.916Z,5.07
2022-08-20T13:09:46.367Z,5.30
2022-08-20T13:12:15.272Z,5.53
2022-08-20T13:14:42.787Z,5.28
2022-08-20T13:17:10.466Z,5.78
2022-08-20T13:19:39.049Z,5.72
2022-08-20T13:22:06.959Z,6.07
2022-08-20T13:24:34.795Z,5.90
2022-08-20T13:27:06.080Z,5.03
2022-08-20T13:29:34.928Z,5.00
2022-08-20T13:32:02.378Z,5.28
2022-08-20T13:34:29.848Z,5.43
2022-08-20T13:36:57.283Z,5.05
2022-08-20T13:39:24.840Z,5.10
2022-08-20T13:41:52.240Z,5.53
2022-08-20T13:44:19.734Z,5.35
2022-08-20T13:46:48.603Z,4.65
2022-08-20T13:49:16.371Z,4.93
2022-08-20T13:51:43.810Z,4.97
2022-08-20T13:54:11.215Z,5.82
2022-08-20T13:56:38.693Z,6.07
2022-08-20T13:59:06.102Z,5.53
2022-08-20T14:01:34.079Z,7.50
2022-08-20T14:04:02.826Z,7.03
2022-08-20T14:06:31.515Z,7.78
2022-08-20T14:08:58.874Z,8.05
2022-08-20T14:11:26.430Z,8.40
2022-08-20T14:13:53.895Z,8.45
2022-08-20T14:16:27.702Z,9.27
2022-08-20T14:18:56.362Z,9.07
2022-08-20T14:21:25.378Z,9.15
2022-08-20T14:23:52.911Z,10.38
2022-08-20T14:26:20.380Z,9.38
2022-08-20T14:28:47.808Z,9.57
2022-08-20T14:31:15.237Z,10.57
2022-08-20T14:33:44.791Z,10.88
2022-08-20T14:36:12.344Z,10.98
2022-08-20T14:38:45.043Z,10.00
2022-08-20T14:41:12.829Z,10.85
2022-08-20T14:43:40.232Z,11.23
2022-08-20T14:46:07.638Z,10.65
2022-08-20T14:48:35.091Z,10.38
2022-08-20T14:51:03.135Z,10.07
2022-08-20T14:53:31.085Z,10.50
2022-08-20T14:56:01.454Z,10.95
2022-08-20T15:00:56.929Z,9.48
2022-08-20T15:03:30.284Z,9.32
2022-08-20T15:05:58.065Z,10.70
2022-08-20T15:08:28.889Z,9.38
2022-08-20T15:10:56.386Z,9.45
2022-08-20T15:13:25.187Z,9.75
2022-08-20T15:15:52.595Z,9.52
2022-08-20T15:18:24.347Z,10.55
2022-08-20T15:20:51.796Z,9.75
2022-08-20T15:23:19.231Z,10.77
2022-08-20T15:25:46.665Z,9.95
2022-08-20T15:28:14.136Z,10.20
2022-08-20T15:30:42.979Z,10.75
2022-08-20T15:33:11.076Z,9.73
2022-08-20T15:35:39.803Z,10.63
2022-08-20T15:38:07.243Z,10.73
2022-08-20T15:40:34.894Z,10.23
2022-08-20T15:43:03.348Z,10.32
2022-08-20T15:45:30.860Z,11.55
2022-08-20T15:48:03.922Z,9.80
2022-08-20T15:50:35.702Z,10.95
2022-08-20T15:53:05.528Z,11.55
2022-08-20T15:55:33.272Z,11.30
2022-08-20T15:58:06.663Z,11.65
2022-08-20T16:00:39.732Z,12.68
2022-08-20T16:03:21.053Z,12.55
2022-08-20T16:05:51.574Z,12.85
2022-08-20T16:08:35.649Z,12.73
2022-08-20T16:11:08.428Z,12.90
2022-08-20T16:13:41.338Z,13.00
2022-08-20T16:16:11.835Z,14.40
2022-08-20T16:18:41.003Z,13.20
2022-08-20T16:21:10.379Z,13.35
2022-08-20T16:23:39.087Z,13.30
2022-08-20T16:26:14.582Z,13.52
2022-08-20T16:28:47.570Z,13.55
2022-08-20T16:31:16.884Z,14.02
2022-08-20T16:33:48.826Z,13.45
2022-08-20T16:36:20.919Z,13.70
2022-08-20T16:38:51.206Z,13.75
2022-08-20T16:41:22.596Z,13.88
2022-08-20T16:43:53.704Z,14.45
2022-08-20T16:46:22.611Z,13.60
2022-08-20T16:48:56.152Z,13.48
2022-08-20T16:51:26.912Z,13.30
2022-08-20T16:53:54.376Z,14.30
2022-08-20T16:56:31.295Z,13.70
2022-08-20T17:01:27.048Z,14.48
2022-08-20T17:03:55.889Z,14.07
2022-08-20T17:06:26.559Z,14.20
2022-08-20T17:08:55.088Z,15.40
2022-08-20T17:11:27.077Z,14.40
2022-08-20T17:14:04.486Z,14.95
2022-08-20T17:16:33.539Z,14.85
2022-08-20T17:19:10.299Z,15.43
2022-08-20T17:21:38.922Z,15.13
2022-08-20T17:24:10.293Z,13.93
2022-08-20T17:26:45.682Z,14.32
2022-08-20T17:29:14.665Z,14.52
2022-08-20T17:31:44.982Z,15.32
2022-08-20T17:34:17.935Z,15.55
2022-08-20T17:36:50.482Z,15.43
2022-08-20T17:39:19.314Z,15.27
2022-08-20T17:41:48.637Z,16.80
2022-08-20T17:44:21.091Z,16.92
2022-08-20T17:46:49.598Z,16.23
2022-08-20T17:49:19.918Z,16.98
2022-08-20T17:51:48.360Z,17.30
2022-08-20T17:54:20.211Z,17.13
2022-08-20T17:56:48.066Z,17.00
2022-08-20T17:59:33.598Z,17.98
2022-08-20T18:02:05.165Z,17.15
2022-08-20T18:04:33.971Z,17.67
2022-08-20T18:07:04.869Z,19.30
2022-08-20T18:09:37.503Z,17.70
2022-08-20T18:12:27.947Z,17.45
2022-08-20T18:15:01.794Z,17.35
2022-08-20T18:17:44.942Z,18.73
2022-08-20T18:20:25.216Z,19.17
2022-08-20T18:22:54.795Z,17.75
2022-08-20T18:25:29.790Z,16.75
2022-08-20T18:28:02.311Z,18.02
2022-08-20T18:30:29.762Z,17.98
2022-08-20T18:33:02.014Z,18.60
2022-08-20T18:35:35.038Z,17.80
2022-08-20T18:38:12.597Z,17.15
2022-08-20T18:40:41.516Z,17.83
2022-08-20T18:43:13.429Z,17.00
2022-08-20T18:45:40.874Z,17.90
2022-08-20T18:48:09.320Z,18.60
2022-08-20T18:50:46.940Z,17.42
2022-08-20T18:53:16.767Z,16.27
2022-08-20T18:55:45.169Z,15.63
2022-08-20T18:58:14.105Z,14.27
2022-08-20T19:00:44.887Z,14.20
2022-08-20T19:03:15.704Z,13.52
2022-08-20T19:05:53.059Z,13.07
2022-08-20T19:08:22.040Z,12.88
2022-08-20T19:10:52.912Z,12.43
2022-08-20T19:13:45.991Z,14.63
2022-08-20T19:16:15.820Z,12.70
2022-08-20T19:18:47.664Z,12.13
2022-08-20T19:21:17.939Z,9.63
2022-08-20T19:23:48.642Z,9.88
2022-08-20T19:26:25.043Z,9.57
2022-08-20T19:28:55.849Z,9.52
2022-08-20T19:31:25.882Z,8.55
2022-08-20T19:34:02.008Z,9.02
2022-08-20T19:36:31.794Z,8.82
2022-08-20T19:39:00.232Z,9.95
2022-08-20T19:41:31.456Z,9.25
2022-08-20T19:43:59.654Z,9.65
2022-08-20T19:46:29.491Z,9.38
2022-08-20T19:49:05.616Z,9.23
2022-08-20T19:51:42.236Z,9.18
2022-08-20T19:54:19.523Z,9.65
2022-08-20T19:56:46.955Z,9.73
2022-08-20T19:59:19.084Z,9.70
2022-08-20T20:01:52.196Z,9.35
2022-08-20T20:04:19.684Z,9.30
2022-08-20T20:06:49.955Z,9.32
2022-08-20T20:09:19.508Z,9.30
2022-08-20T20:11:47.957Z,8.68
2022-08-20T20:14:17.473Z,7.18
2022-08-20T20:16:46.482Z,7.13
2022-08-20T20:19:29.878Z,7.35
2022-08-20T20:24:27.731Z,6.85
2022-08-20T20:26:55.496Z,7.13
2022-08-20T20:29:24.593Z,7.22
2022-08-20T20:31:53.304Z,6.88
2022-08-20T20:34:25.814Z,7.63
2022-08-20T20:37:02.730Z,7.40
2022-08-20T20:39:33.669Z,7.47
2022-08-20T20:42:02.500Z,7.95
2022-08-20T20:44:37.045Z,7.55
2022-08-20T20:47:06.490Z,8.35
2022-08-20T20:49:35.771Z,7.65
2022-08-20T20:52:05.515Z,7.53
2022-08-20T20:54:45.042Z,6.97
2022-08-20T20:57:36.418Z,7.18
2022-08-20T21:00:06.890Z,6.85
2022-08-20T21:02:34.362Z,7.30
2022-08-20T21:05:01.811Z,6.63
2022-08-20T21:07:29.236Z,7.65
2022-08-20T21:09:58.246Z,6.78
2022-08-20T21:12:25.864Z,6.72
2022-08-20T21:14:53.515Z,6.20
2022-08-20T21:17:22.724Z,6.57
2022-08-20T21:19:50.900Z,6.63
2022-08-20T21:22:18.740Z,7.22
2022-08-20T21:24:48.410Z,6.68
2022-08-20T21:27:17.263Z,6.85
2022-08-20T21:29:44.758Z,7.40
2022-08-20T21:32:12.399Z,7.03
2022-08-20T21:34:42.722Z,7.38
2022-08-20T21:37:10.392Z,7.50
2022-08-20T21:39:37.826Z,7.03
2022-08-20T21:42:12.273Z,6.97
2022-08-20T21:44:55.089Z,7.00
2022-08-20T21:47:22.755Z,6.70
2022-08-20T21:49:50.208Z,6.05
2022-08-20T21:52:18.910Z,6.82
2022-08-20T21:54:46.431Z,6.95
2022-08-20T21:57:15.432Z,6.55
2022-08-20T21:59:43.354Z,6.00
2022-08-20T22:02:12.374Z,6.10
2022-08-20T22:04:39.840Z,6.20
2022-08-20T22:07:07.362Z,5.85
2022-08-20T22:09:36.089Z,6.40
2022-08-20T22:12:04.443Z,6.60
2022-08-20T22:14:32.140Z,6.35
2022-08-20T22:16:59.531Z,6.30
2022-08-20T22:19:28.336Z,6.15
2022-08-20T22:21:55.907Z,6.53
2022-08-20T22:24:23.918Z,6.45
2022-08-20T22:26:51.341Z,6.70
2022-08-20T22:29:18.823Z,5.78
2022-08-20T22:31:46.208Z,6.00
2022-08-20T22:34:14.528Z,6.13
2022-08-20T22:36:43.898Z,6.32
2022-08-20T22:39:11.415Z,7.00
2022-08-20T22:41:39.191Z,6.00
2022-08-20T22:44:06.640Z,5.95
2022-08-20T22:46:35.844Z,5.63
2022-08-20T22:49:03.358Z,5.25
2022-08-20T22:51:31.598Z,6.22
2022-08-20T22:54:03.739Z,5.70
2022-08-20T22:56:31.149Z,6.40
2022-08-20T22:58:59.225Z,5.60
2022-08-20T23:01:27.719Z,5.15
2022-08-20T23:03:55.715Z,5.30
2022-08-20T23:06:23.796Z,5.13
2022-08-20T23:08:51.249Z,5.97
2022-08-20T23:11:20.350Z,5.25
2022-08-20T23:13:47.783Z,5.25
2022-08-20T23:16:15.187Z,5.10
2022-08-20T23:18:42.670Z,5.38
2022-08-20T23:21:10.079Z,5.50
2022-08-20T23:23:37.531Z,5.97
2022-08-20T23:26:05.092Z,5.13
2022-08-20T23:28:34.217Z,4.45
2022-08-20T23:31:01.655Z,5.30
2022-08-20T23:33:29.057Z,4.90
2022-08-20T23:35:56.607Z,5.10
2022-08-20T23:38:24.018Z,4.57
2022-08-20T23:40:51.805Z,4.72
2022-08-20T23:43:19.643Z,4.70
2022-08-20T23:45:48.463Z,4.88
2022-08-20T23:48:15.914Z,4.60
2022-08-20T23:50:43.714Z,4.55
2022-08-20T23:53:11.650Z,4.93
2022-08-20T23:55:39.134Z,5.07
2022-08-20T23:58:06.594Z,4.45
